createdAt,value
2023-01-17T00:00:11.175Z,973.07
2023-01-17T00:01:11.084Z,973.11
2023-01-17T00:02:11.108Z,973.16
2023-01-17T00:03:11.080Z,973.25
2023-01-17T00:04:11.139Z,973.21
2023-01-17T00:05:11.042Z,973.27
2023-01-17T00:06:11.050Z,973.30
2023-01-17T00:07:11.022Z,973.33
2023-01-17T00:08:11.035Z,973.32
2023-01-17T00:09:11.023Z,973.33
2023-01-17T00:10:11.010Z,973.38
2023-01-17T00:11:10.978Z,973.37
2023-01-17T00:12:10.990Z,973.44
2023-01-17T00:13:10.974Z,973.47
2023-01-17T00:14:10.963Z,973.44
2023-01-17T00:15:10.943Z,973.47
2023-01-17T00:16:11.008Z,973.51
2023-01-17T00:17:10.913Z,973.51
2023-01-17T00:18:10.925Z,973.55
2023-01-17T00:19:10.898Z,973.57
2023-01-17T00:20:10.892Z,973.60
2023-01-17T00:21:10.880Z,973.59
2023-01-17T00:22:10.921Z,973.60
2023-01-17T00:23:10.852Z,973.59
2023-01-17T00:24:10.867Z,973.58
2023-01-17T00:25:10.830Z,973.58
2023-01-17T00:26:10.851Z,973.63
2023-01-17T00:27:10.814Z,973.59
2023-01-17T00:28:10.833Z,973.61
2023-01-17T00:29:10.791Z,973.65
2023-01-17T00:30:10.826Z,973.61
2023-01-17T00:31:10.819Z,973.57
2023-01-17T00:32:10.775Z,973.64
2023-01-17T00:33:10.742Z,973.64
2023-01-17T00:34:10.771Z,973.62
2023-01-17T00:35:10.728Z,973.64
2023-01-17T00:36:10.753Z,973.69
2023-01-17T00:37:10.720Z,973.75
2023-01-17T00:38:10.703Z,973.76
2023-01-17T00:39:10.711Z,973.76
2023-01-17T00:40:10.681Z,973.84
2023-01-17T00:41:10.668Z,973.82
2023-01-17T00:42:10.663Z,973.85
2023-01-17T00:43:10.640Z,973.78
2023-01-17T00:44:10.657Z,973.84
2023-01-17T00:45:10.658Z,973.74
2023-01-17T00:46:10.749Z,973.75
2023-01-17T00:47:10.603Z,973.79
2023-01-17T00:48:10.627Z,973.80
2023-01-17T00:49:10.600Z,973.85
2023-01-17T00:50:10.617Z,973.85
2023-01-17T00:51:10.557Z,973.81
2023-01-17T00:52:10.565Z,973.86
2023-01-17T00:53:10.568Z,973.91
2023-01-17T00:54:10.571Z,973.87
2023-01-17T00:55:10.553Z,973.89
2023-01-17T00:56:10.547Z,973.91
2023-01-17T00:57:10.507Z,973.98
2023-01-17T00:58:10.506Z,973.94
2023-01-17T00:59:10.477Z,973.99
2023-01-17T01:00:10.494Z,973.97
2023-01-17T01:01:10.617Z,974.04
2023-01-17T01:02:10.532Z,973.91
2023-01-17T01:03:10.441Z,974.00
2023-01-17T01:04:10.440Z,974.05
2023-01-17T01:05:10.418Z,974.09
2023-01-17T01:06:10.450Z,974.10
2023-01-17T01:07:10.385Z,974.23
2023-01-17T01:08:10.397Z,974.14
2023-01-17T01:09:10.396Z,974.17
2023-01-17T01:10:10.394Z,974.14
2023-01-17T01:11:10.382Z,974.16
2023-01-17T01:12:10.350Z,974.26
2023-01-17T01:13:10.330Z,974.21
2023-01-17T01:14:10.347Z,974.25
2023-01-17T01:15:10.303Z,974.22
2023-01-17T01:16:10.367Z,974.21
2023-01-17T01:17:10.311Z,974.26
2023-01-17T01:18:10.302Z,974.31
2023-01-17T01:19:10.263Z,974.26
2023-01-17T01:20:10.307Z,974.29
2023-01-17T01:21:10.242Z,974.34
2023-01-17T01:22:10.261Z,974.31
2023-01-17T01:23:10.243Z,974.37
2023-01-17T01:24:10.230Z,974.40
2023-01-17T01:25:10.220Z,974.40
2023-01-17T01:26:10.222Z,974.44
2023-01-17T01:27:10.179Z,974.43
2023-01-17T01:28:10.206Z,974.45
2023-01-17T01:29:10.154Z,974.47
2023-01-17T01:30:10.169Z,974.44
2023-01-17T01:31:10.184Z,974.53
2023-01-17T01:32:10.149Z,974.51
2023-01-17T01:33:10.142Z,974.58
2023-01-17T01:34:10.117Z,974.54
2023-01-17T01:35:10.107Z,974.58
2023-01-17T01:36:10.109Z,974.73
2023-01-17T01:37:10.084Z,974.59
2023-01-17T01:38:10.081Z,974.63
2023-01-17T01:39:10.102Z,974.62
2023-01-17T01:40:10.062Z,974.59
2023-01-17T01:41:10.041Z,974.66
2023-01-17T01:42:10.070Z,974.70
2023-01-17T01:43:10.012Z,974.68
2023-01-17T01:44:10.034Z,974.71
2023-01-17T01:45:10.000Z,974.74
2023-01-17T01:46:10.107Z,974.76
2023-01-17T01:47:09.983Z,974.77
2023-01-17T01:48:09.963Z,974.76
2023-01-17T01:49:09.977Z,974.74
2023-01-17T01:50:09.942Z,974.86
2023-01-17T01:51:09.957Z,974.78
2023-01-17T01:52:09.926Z,974.84
2023-01-17T01:53:09.922Z,974.83
2023-01-17T01:54:09.899Z,974.89
2023-01-17T01:55:09.924Z,974.83
2023-01-17T01:56:09.880Z,974.84
2023-01-17T01:57:09.895Z,974.88
2023-01-17T01:58:09.886Z,974.92
2023-01-17T01:59:09.854Z,974.92
2023-01-17T02:00:09.840Z,974.88
2023-01-17T02:01:09.958Z,974.98
2023-01-17T02:02:09.817Z,974.97
2023-01-17T02:03:09.838Z,975.00
2023-01-17T02:04:10.116Z,974.98
2023-01-17T02:05:09.804Z,974.96
2023-01-17T02:06:09.787Z,975.01
2023-01-17T02:07:09.788Z,975.02
2023-01-17T02:08:09.759Z,974.96
2023-01-17T02:09:09.757Z,974.99
2023-01-17T02:10:09.764Z,975.00
2023-01-17T02:11:09.761Z,975.00
2023-01-17T02:12:09.729Z,975.02
2023-01-17T02:13:09.732Z,974.99
2023-01-17T02:14:09.705Z,974.98
2023-01-17T02:15:09.689Z,975.03
2023-01-17T02:16:09.714Z,975.01
2023-01-17T02:17:09.674Z,975.04
2023-01-17T02:18:09.672Z,974.99
2023-01-17T02:19:09.647Z,975.06
2023-01-17T02:20:09.630Z,975.03
2023-01-17T02:21:09.645Z,975.10
2023-01-17T02:22:09.609Z,975.10
2023-01-17T02:23:09.631Z,975.04
2023-01-17T02:24:09.608Z,975.09
2023-01-17T02:25:09.614Z,975.03
2023-01-17T02:26:09.559Z,975.15
2023-01-17T02:27:09.569Z,975.19
2023-01-17T02:28:09.550Z,975.17
2023-01-17T02:29:09.557Z,975.28
2023-01-17T07:00:56.437Z,977.33
2023-01-17T07:01:57.241Z,977.33
2023-01-17T07:02:57.230Z,977.34
2023-01-17T07:03:57.250Z,977.32
2023-01-17T07:04:57.195Z,977.31
2023-01-17T07:05:57.203Z,977.30
2023-01-17T07:06:57.177Z,977.30
2023-01-17T07:07:57.194Z,977.29
2023-01-17T07:08:57.161Z,977.29
2023-01-17T07:09:57.179Z,977.30
2023-01-17T07:10:57.131Z,977.29
2023-01-17T07:11:57.144Z,977.30
2023-01-17T07:12:57.108Z,977.30
2023-01-17T07:13:57.149Z,977.32
2023-01-17T07:14:57.086Z,977.33
2023-01-17T07:15:57.132Z,977.33
2023-01-17T07:16:57.069Z,977.33
2023-01-17T07:17:57.081Z,977.33
2023-01-17T07:18:57.082Z,977.31
2023-01-17T07:19:57.054Z,977.32
2023-01-17T07:20:57.031Z,977.29
2023-01-17T07:21:57.065Z,977.28
2023-01-17T07:22:57.011Z,977.27
2023-01-17T07:23:57.013Z,977.26
2023-01-17T07:24:57.009Z,977.25
2023-01-17T07:25:57.001Z,977.23
2023-01-17T07:26:56.971Z,977.22
2023-01-17T07:27:56.972Z,977.19
2023-01-17T07:28:56.944Z,977.19
2023-01-17T07:29:56.947Z,977.20
2023-01-17T07:30:56.951Z,977.18
2023-01-17T07:31:56.943Z,977.18
2023-01-17T07:32:56.901Z,977.18
2023-01-17T07:33:56.917Z,977.19
2023-01-17T07:34:56.898Z,977.16
2023-01-17T07:35:56.891Z,977.16
2023-01-17T07:36:56.889Z,977.17
2023-01-17T07:37:56.868Z,977.14
2023-01-17T07:38:56.836Z,977.15
2023-01-17T07:39:56.843Z,977.15
2023-01-17T07:40:56.816Z,977.15
2023-01-17T07:41:56.820Z,977.15
2023-01-17T07:42:56.831Z,977.16
2023-01-17T07:43:56.822Z,977.13
2023-01-17T07:44:56.778Z,977.15
2023-01-17T07:45:56.781Z,977.15
2023-01-17T07:46:56.785Z,977.13
2023-01-17T07:47:56.758Z,977.12
2023-01-17T07:48:56.759Z,977.12
2023-01-17T07:49:56.746Z,977.12
2023-01-17T07:50:56.728Z,977.08
2023-01-17T07:51:56.729Z,977.06
2023-01-17T07:52:56.695Z,977.05
2023-01-17T07:53:56.701Z,977.02
2023-01-17T07:54:56.723Z,976.98
2023-01-17T07:55:56.709Z,976.96
2023-01-17T07:56:56.702Z,976.93
2023-01-17T07:57:56.705Z,976.93
2023-01-17T07:58:56.642Z,976.93
2023-01-17T07:59:56.649Z,976.91
2023-01-17T08:00:56.702Z,976.91
2023-01-17T08:01:56.792Z,976.90
2023-01-17T08:02:56.589Z,976.90
2023-01-17T08:03:56.724Z,976.91
2023-01-17T08:04:56.585Z,976.91
2023-01-17T08:05:56.571Z,976.92
2023-01-17T08:06:56.561Z,976.94
2023-01-17T08:07:56.558Z,976.96
2023-01-17T08:08:57.088Z,977.01
2023-01-17T08:09:56.556Z,977.01
2023-01-17T08:10:56.510Z,977.03
2023-01-17T08:11:56.529Z,977.06
2023-01-17T08:12:56.491Z,977.06
2023-01-17T08:13:56.498Z,977.06
2023-01-17T08:14:56.474Z,977.05
2023-01-17T08:15:56.510Z,977.04
2023-01-17T08:16:56.467Z,977.03
2023-01-17T08:17:56.469Z,977.02
2023-01-17T08:18:56.424Z,977.01
2023-01-17T08:19:56.445Z,976.99
2023-01-17T08:20:56.401Z,976.98
2023-01-17T08:21:56.410Z,976.97
2023-01-17T08:22:56.375Z,976.96
2023-01-17T08:23:56.403Z,976.97
2023-01-17T08:24:56.393Z,976.94
2023-01-17T08:25:56.374Z,976.92
2023-01-17T08:26:56.386Z,976.91
2023-01-17T08:27:56.340Z,976.91
2023-01-17T08:28:56.336Z,976.89
2023-01-17T08:29:56.317Z,976.86
2023-01-17T08:30:56.349Z,976.84
2023-01-17T08:31:56.308Z,976.82
2023-01-17T08:32:56.306Z,976.78
2023-01-17T08:33:56.276Z,976.76
2023-01-17T08:34:56.294Z,976.73
2023-01-17T08:35:56.240Z,976.71
2023-01-17T08:36:56.327Z,976.69
2023-01-17T08:37:56.239Z,976.66
2023-01-17T08:38:56.231Z,976.65
2023-01-17T08:39:56.222Z,976.63
2023-01-17T08:40:56.211Z,976.60
2023-01-17T08:41:56.200Z,976.56
2023-01-17T08:42:56.233Z,976.54
2023-01-17T08:43:56.177Z,976.53
2023-01-17T08:44:56.164Z,976.51
2023-01-17T08:45:56.280Z,976.51
2023-01-17T08:46:56.157Z,976.51
2023-01-17T08:47:56.126Z,976.50
2023-01-17T08:48:56.168Z,976.51
2023-01-17T08:49:56.122Z,976.52
2023-01-17T08:50:56.106Z,976.53
2023-01-17T08:51:56.077Z,976.53
2023-01-17T08:52:56.088Z,976.55
2023-01-17T08:53:56.063Z,976.57
2023-01-17T08:54:56.099Z,976.58
2023-01-17T08:55:56.034Z,976.59
2023-01-17T08:56:56.043Z,976.59
2023-01-17T08:57:56.015Z,976.60
2023-01-17T08:58:56.049Z,976.58
2023-01-17T08:59:55.991Z,976.58
2023-01-17T09:00:56.051Z,976.55
2023-01-17T09:01:56.191Z,976.54
2023-01-17T09:02:55.977Z,976.54
2023-01-17T09:03:55.991Z,976.53
2023-01-17T09:04:55.969Z,976.53
2023-01-17T09:05:55.931Z,976.54
2023-01-17T09:06:55.947Z,976.57
2023-01-17T09:07:55.912Z,976.57
2023-01-17T09:08:55.944Z,976.59
2023-01-17T09:09:55.943Z,976.61
2023-01-17T09:10:55.926Z,976.63
2023-01-17T09:11:55.869Z,976.64
2023-01-17T09:12:55.892Z,976.66
2023-01-17T09:13:55.866Z,976.67
2023-01-17T09:14:55.871Z,976.69
2023-01-17T09:15:55.853Z,976.70
2023-01-17T09:16:55.859Z,976.71
2023-01-17T09:17:55.806Z,976.71
2023-01-17T09:18:55.847Z,976.72
2023-01-17T09:19:55.809Z,976.73
2023-01-17T09:20:55.831Z,976.74
2023-01-17T09:21:55.798Z,976.74
2023-01-17T09:22:55.789Z,976.75
2023-01-17T09:23:55.762Z,976.75
2023-01-17T09:24:55.756Z,976.73
2023-01-17T09:25:55.744Z,976.72
2023-01-17T09:26:55.747Z,976.71
2023-01-17T09:27:55.735Z,976.70
2023-01-17T09:28:55.721Z,976.70
2023-01-17T09:29:55.685Z,976.69
2023-01-17T09:30:55.749Z,976.70
2023-01-17T09:31:55.663Z,976.71
2023-01-17T09:32:55.676Z,976.71
2023-01-17T09:33:55.659Z,976.72
2023-01-17T09:34:55.665Z,976.75
2023-01-17T09:35:55.623Z,976.77
2023-01-17T09:36:55.624Z,976.80
2023-01-17T09:37:57.238Z,976.82
2023-01-17T09:38:55.619Z,976.83
2023-01-17T09:39:55.597Z,976.83
2023-01-17T09:40:55.581Z,976.85
2023-01-17T09:41:55.579Z,976.85
2023-01-17T09:42:55.567Z,976.83
2023-01-17T09:43:55.534Z,976.83
2023-01-17T09:44:55.542Z,976.85
2023-01-17T09:45:55.573Z,976.84
2023-01-17T09:46:55.575Z,976.84
2023-01-17T09:47:55.511Z,976.85
2023-01-17T09:48:55.505Z,976.85
2023-01-17T09:49:55.479Z,976.86
2023-01-17T09:50:55.480Z,976.87
2023-01-17T09:51:55.454Z,976.88
2023-01-17T09:52:55.486Z,976.89
2023-01-17T09:53:55.453Z,976.89
2023-01-17T09:54:55.434Z,976.90
2023-01-17T09:55:55.415Z,976.90
2023-01-17T09:56:55.415Z,976.90
2023-01-17T09:57:55.405Z,976.92
2023-01-17T09:58:55.399Z,976.92
2023-01-17T10:00:02.963Z,976.91
2023-01-17T10:00:55.511Z,976.91
2023-01-17T10:01:55.603Z,976.88
2023-01-17T10:02:55.530Z,976.87
2023-01-17T10:03:55.490Z,976.87
2023-01-17T10:04:55.339Z,976.86
2023-01-17T10:05:55.328Z,976.86
2023-01-17T10:06:55.309Z,976.87
2023-01-17T10:07:55.291Z,976.89
2023-01-17T10:08:55.307Z,976.90
2023-01-17T10:09:55.286Z,976.89
2023-01-17T10:10:55.274Z,976.88
2023-01-17T10:11:55.305Z,976.88
2023-01-17T10:12:55.254Z,976.88
2023-01-17T10:13:55.231Z,976.87
2023-01-17T10:14:55.220Z,976.87
2023-01-17T10:15:55.213Z,976.88
2023-01-17T10:16:55.532Z,976.88
2023-01-17T10:17:55.179Z,976.88
2023-01-17T10:18:55.187Z,976.88
2023-01-17T10:19:55.195Z,976.88
2023-01-17T10:20:55.171Z,976.87
2023-01-17T10:21:55.144Z,976.87
2023-01-17T10:22:55.188Z,976.86
2023-01-17T10:23:55.126Z,976.85
2023-01-17T10:24:55.130Z,976.84
2023-01-17T10:25:55.096Z,976.83
2023-01-17T10:26:55.105Z,976.83
2023-01-17T10:27:55.091Z,976.81
2023-01-17T10:28:55.101Z,976.80
2023-01-17T10:29:55.068Z,976.79
2023-01-17T10:30:55.116Z,976.79
2023-01-17T10:31:55.042Z,976.79
2023-01-17T10:32:55.079Z,976.79
2023-01-17T10:33:55.030Z,976.79
2023-01-17T10:34:55.043Z,976.80
2023-01-17T10:35:55.015Z,976.79
2023-01-17T10:36:55.010Z,976.79
2023-01-17T10:37:54.979Z,976.79
2023-01-17T10:38:54.985Z,976.78
2023-01-17T10:39:54.955Z,976.74
2023-01-17T10:40:54.988Z,976.72
2023-01-17T10:41:54.955Z,976.72
2023-01-17T10:42:54.933Z,976.71
2023-01-17T10:43:54.914Z,976.73
2023-01-17T10:44:54.934Z,976.73
2023-01-17T10:45:54.949Z,976.75
2023-01-17T10:46:54.907Z,976.77
2023-01-17T10:47:54.890Z,976.78
2023-01-17T10:48:54.910Z,976.80
2023-01-17T10:49:54.861Z,976.83
2023-01-17T10:50:54.875Z,976.82
2023-01-17T10:51:54.842Z,976.82
2023-01-17T10:52:54.832Z,976.82
2023-01-17T10:53:54.806Z,976.82
2023-01-17T10:54:54.842Z,976.83
2023-01-17T10:55:54.803Z,976.84
2023-01-17T10:56:54.803Z,976.84
2023-01-17T10:57:54.777Z,976.86
2023-01-17T10:58:54.786Z,976.86
2023-01-17T10:59:54.770Z,976.89
2023-01-17T11:00:54.771Z,976.89
2023-01-17T11:01:54.910Z,976.90
2023-01-17T11:02:54.820Z,976.90
2023-01-17T11:03:54.713Z,976.91
2023-01-17T11:04:54.742Z,976.91
2023-01-17T11:05:54.681Z,976.89
2023-01-17T11:06:58.257Z,976.89
2023-01-17T11:07:54.819Z,976.87
2023-01-17T11:08:54.679Z,976.86
2023-01-17T11:09:54.647Z,976.86
2023-01-17T11:10:54.662Z,976.86
2023-01-17T11:11:54.623Z,976.86
2023-01-17T11:12:54.684Z,976.87
2023-01-17T11:13:54.615Z,976.86
2023-01-17T11:14:54.605Z,976.87
2023-01-17T11:15:54.604Z,976.87
2023-01-17T11:16:54.581Z,976.89
2023-01-17T11:17:54.555Z,976.87
2023-01-17T11:18:54.571Z,976.88
2023-01-17T11:19:54.563Z,976.88
2023-01-17T11:20:54.545Z,976.88
2023-01-17T11:21:54.531Z,976.87
2023-01-17T11:22:54.545Z,976.87
2023-01-17T11:23:54.516Z,976.86
2023-01-17T11:24:54.507Z,976.84
2023-01-17T11:25:54.472Z,976.83
2023-01-17T11:26:54.473Z,976.82
2023-01-17T11:27:54.459Z,976.82
2023-01-17T11:28:54.475Z,976.82
2023-01-17T11:29:54.446Z,976.81
2023-01-17T11:30:54.482Z,976.80
2023-01-17T11:31:54.419Z,976.78
2023-01-17T11:32:54.419Z,976.76
2023-01-17T11:33:54.386Z,976.73
2023-01-17T11:34:54.405Z,976.72
2023-01-17T11:35:54.389Z,976.71
2023-01-17T11:36:54.379Z,976.70
2023-01-17T11:37:54.352Z,976.68
2023-01-17T11:38:54.347Z,976.66
2023-01-17T11:39:54.331Z,976.64
2023-01-17T11:40:54.345Z,976.63
2023-01-17T11:41:54.315Z,976.62
2023-01-17T11:42:54.596Z,976.61
2023-01-17T11:43:54.303Z,976.60
2023-01-17T11:44:54.287Z,976.58
2023-01-17T11:45:54.325Z,976.56
2023-01-17T11:46:54.264Z,976.56
2023-01-17T11:47:54.240Z,976.55
2023-01-17T11:48:56.131Z,976.54
2023-01-17T11:49:54.224Z,976.53
2023-01-17T11:50:54.235Z,976.53
2023-01-17T11:51:54.223Z,976.52
2023-01-17T11:52:54.223Z,976.50
2023-01-17T11:53:54.194Z,976.47
2023-01-17T11:54:54.201Z,976.44
2023-01-17T11:55:54.163Z,976.40
2023-01-17T11:56:54.192Z,976.36
2023-01-17T11:57:56.408Z,976.32
2023-01-17T11:58:54.145Z,976.29
2023-01-17T11:59:54.135Z,976.27
2023-01-17T12:00:54.153Z,976.25
2023-01-17T12:01:54.116Z,976.24
2023-01-17T12:02:54.101Z,976.25
2023-01-17T12:03:54.128Z,976.24
2023-01-17T12:04:54.114Z,976.23
2023-01-17T12:05:54.052Z,976.22
2023-01-17T12:06:57.933Z,976.21
2023-01-17T12:07:54.042Z,976.20
2023-01-17T12:08:54.057Z,976.19
2023-01-17T12:09:54.009Z,976.18
2023-01-17T12:10:54.052Z,976.17
2023-01-17T12:11:53.982Z,976.21
2023-01-17T12:12:54.020Z,976.18
2023-01-17T12:13:53.980Z,976.18
2023-01-17T12:14:54.027Z,976.17
2023-01-17T12:15:53.996Z,976.15
2023-01-17T12:16:53.964Z,976.12
2023-01-17T12:17:53.956Z,976.10
2023-01-17T12:18:53.930Z,976.07
2023-01-17T12:19:53.900Z,976.05
2023-01-17T12:20:53.907Z,976.03
2023-01-17T12:21:53.890Z,976.02
2023-01-17T12:22:53.889Z,976.01
2023-01-17T12:23:53.891Z,976.00
2023-01-17T12:24:53.865Z,975.99
2023-01-17T12:25:53.836Z,975.98
2023-01-17T12:26:53.860Z,975.96
2023-01-17T12:27:53.823Z,975.95
2023-01-17T12:28:53.833Z,975.92
2023-01-17T12:29:53.820Z,975.91
2023-01-17T12:30:53.814Z,975.89
2023-01-17T12:31:53.768Z,975.87
2023-01-17T12:32:53.779Z,975.87
2023-01-17T12:33:53.765Z,975.84
2023-01-17T12:34:53.787Z,975.85
2023-01-17T12:35:53.730Z,975.85
2023-01-17T12:36:53.772Z,975.81
2023-01-17T12:38:04.423Z,975.81
2023-01-17T12:38:53.721Z,975.82
2023-01-17T12:39:53.713Z,975.83
2023-01-17T12:40:53.693Z,975.85
2023-01-17T12:41:53.673Z,975.84
2023-01-17T12:42:53.657Z,975.85
2023-01-17T12:43:53.670Z,975.83
2023-01-17T12:44:53.631Z,975.83
2023-01-17T12:45:53.635Z,975.83
2023-01-17T12:46:53.670Z,975.85
2023-01-17T12:47:53.619Z,975.83
2023-01-17T12:48:53.601Z,975.83
2023-01-17T12:49:53.606Z,975.81
2023-01-17T12:50:53.578Z,975.80
2023-01-17T12:51:53.628Z,975.79
2023-01-17T12:52:53.538Z,975.76
2023-01-17T12:53:53.562Z,975.76
2023-01-17T12:54:53.528Z,975.76
2023-01-17T12:55:53.562Z,975.72
2023-01-17T12:56:53.500Z,975.71
2023-01-17T12:57:53.534Z,975.69
2023-01-17T12:58:53.475Z,975.65
2023-01-17T12:59:53.481Z,975.63
2023-01-17T13:00:53.501Z,975.59
2023-01-17T13:01:53.537Z,975.57
2023-01-17T13:02:53.472Z,975.54
2023-01-17T13:03:55.056Z,975.55
2023-01-17T13:04:58.827Z,975.55
2023-01-17T13:05:53.469Z,975.55
2023-01-17T13:06:53.393Z,975.57
2023-01-17T13:07:53.427Z,975.57
2023-01-17T13:08:53.368Z,975.56
2023-01-17T13:09:53.402Z,975.56
2023-01-17T13:10:53.356Z,975.54
2023-01-17T13:11:53.351Z,975.53
2023-01-17T13:12:53.354Z,975.53
2023-01-17T13:13:53.345Z,975.53
2023-01-17T13:14:53.306Z,975.51
2023-01-17T13:15:53.340Z,975.49
2023-01-17T13:16:53.297Z,975.48
2023-01-17T13:17:53.319Z,975.46
2023-01-17T13:18:53.277Z,975.45
2023-01-17T13:19:53.300Z,975.46
2023-01-17T13:20:53.246Z,975.46
2023-01-17T13:21:53.277Z,975.47
2023-01-17T13:22:53.230Z,975.47
2023-01-17T13:23:53.223Z,975.48
2023-01-17T13:24:53.233Z,975.48
2023-01-17T13:25:53.205Z,975.48
2023-01-17T13:26:53.193Z,975.47
2023-01-17T13:27:53.181Z,975.46
2023-01-17T13:28:54.988Z,975.46
2023-01-17T13:29:53.159Z,975.47
2023-01-17T13:30:53.159Z,975.48
2023-01-17T13:31:53.208Z,975.49
2023-01-17T13:32:53.108Z,975.50
2023-01-17T13:33:53.108Z,975.50
2023-01-17T13:34:53.103Z,975.50
2023-01-17T13:35:53.100Z,975.49
2023-01-17T13:36:53.080Z,975.48
2023-01-17T13:37:53.074Z,975.49
2023-01-17T13:38:53.063Z,975.50
2023-01-17T13:39:53.047Z,975.51
2023-01-17T13:40:53.043Z,975.52
2023-01-17T13:41:53.048Z,975.52
2023-01-17T13:42:52.998Z,975.53
2023-01-17T13:43:53.008Z,975.52
2023-01-17T13:44:52.994Z,975.52
2023-01-17T13:45:53.020Z,975.52
2023-01-17T13:46:52.987Z,975.52
2023-01-17T13:47:52.972Z,975.52
2023-01-17T13:48:52.937Z,975.51
2023-01-17T13:49:52.946Z,975.49
2023-01-17T13:50:52.919Z,975.47
2023-01-17T13:51:52.928Z,975.46
2023-01-17T13:52:52.914Z,975.46
2023-01-17T13:53:52.895Z,975.46
2023-01-17T13:54:52.875Z,975.46
2023-01-17T13:55:52.896Z,975.47
2023-01-17T13:56:52.879Z,975.48
2023-01-17T13:57:52.860Z,975.50
2023-01-17T13:58:52.835Z,975.52
2023-01-17T13:59:52.835Z,975.54
2023-01-17T14:00:52.881Z,975.56
2023-01-17T14:01:52.963Z,975.57
2023-01-17T14:02:54.714Z,975.58
2023-01-17T14:03:52.807Z,975.60
2023-01-17T14:04:52.792Z,975.62
2023-01-17T14:05:52.757Z,975.63
2023-01-17T14:06:52.741Z,975.63
2023-01-17T14:07:52.778Z,975.65
2023-01-17T14:08:52.719Z,975.65
2023-01-17T14:09:52.739Z,975.67
2023-01-17T14:10:52.700Z,975.68
2023-01-17T14:11:52.709Z,975.69
2023-01-17T14:12:52.672Z,975.69
2023-01-17T14:13:52.674Z,975.70
2023-01-17T14:14:52.657Z,975.70
2023-01-17T14:15:52.671Z,975.68
2023-01-17T14:16:52.632Z,975.65
2023-01-17T14:17:52.657Z,975.64
2023-01-17T14:18:52.614Z,975.61
2023-01-17T14:19:52.789Z,975.60
2023-01-17T14:20:52.609Z,975.59
2023-01-17T14:21:52.611Z,975.56
2023-01-17T14:22:52.565Z,975.53
2023-01-17T14:23:52.604Z,975.51
2023-01-17T14:24:52.543Z,975.49
2023-01-17T14:25:52.586Z,975.47
2023-01-17T14:26:52.522Z,975.45
2023-01-17T14:27:52.523Z,975.43
2023-01-17T14:28:52.500Z,975.43
2023-01-17T14:29:52.506Z,975.42
2023-01-17T14:30:52.497Z,975.41
2023-01-17T14:31:52.566Z,975.41
2023-01-17T14:32:52.457Z,975.43
2023-01-17T14:33:52.470Z,975.42
2023-01-17T14:34:52.444Z,975.42
2023-01-17T14:35:52.501Z,975.44
2023-01-17T14:36:52.422Z,975.44
2023-01-17T14:37:52.423Z,975.43
2023-01-17T14:38:52.395Z,975.43
2023-01-17T14:39:52.403Z,975.43
2023-01-17T14:40:52.425Z,975.42
2023-01-17T14:41:52.384Z,975.41
2023-01-17T14:42:52.390Z,975.41
2023-01-17T14:43:52.377Z,975.39
2023-01-17T14:44:52.344Z,975.38
2023-01-17T14:45:52.403Z,975.36
2023-01-17T14:46:52.304Z,975.35
2023-01-17T14:47:52.307Z,975.35
2023-01-17T14:48:52.289Z,975.33
2023-01-17T14:49:52.297Z,975.34
2023-01-17T14:50:52.317Z,975.34
2023-01-17T14:51:52.266Z,975.34
2023-01-17T14:52:52.249Z,975.34
2023-01-17T14:53:52.266Z,975.32
2023-01-17T14:54:52.220Z,975.31
2023-01-17T14:55:52.229Z,975.30
2023-01-17T14:56:52.223Z,975.30
2023-01-17T14:57:52.210Z,975.29
2023-01-17T14:58:52.176Z,975.31
2023-01-17T14:59:52.187Z,975.31
2023-01-17T15:00:52.350Z,975.32
2023-01-17T15:02:06.270Z,975.34
2023-01-17T15:02:52.334Z,975.34
2023-01-17T15:03:52.137Z,975.35
2023-01-17T15:04:52.143Z,975.35
2023-01-17T15:05:52.141Z,975.36
2023-01-17T15:06:52.101Z,975.36
2023-01-17T15:07:52.091Z,975.36
2023-01-17T15:08:52.082Z,975.35
2023-01-17T15:09:52.083Z,975.35
2023-01-17T15:10:52.069Z,975.34
2023-01-17T15:11:52.081Z,975.33
2023-01-17T15:12:52.032Z,975.30
2023-01-17T15:13:52.040Z,975.30
2023-01-17T15:14:52.004Z,975.29
2023-01-17T15:15:52.062Z,975.29
2023-01-17T15:16:52.242Z,975.30
2023-01-17T15:17:51.996Z,975.32
2023-01-17T15:18:51.968Z,975.34
2023-01-17T15:19:52.011Z,975.37
2023-01-17T15:20:51.950Z,975.39
2023-01-17T15:21:51.972Z,975.42
2023-01-17T15:22:51.918Z,975.43
2023-01-17T15:23:51.905Z,975.45
2023-01-17T15:24:51.916Z,975.45
2023-01-17T15:25:51.912Z,975.45
2023-01-17T15:26:51.975Z,975.44
2023-01-17T15:27:51.885Z,975.43
2023-01-17T15:28:51.872Z,975.43
2023-01-17T15:29:51.859Z,975.44
2023-01-17T15:30:52.252Z,975.46
2023-01-17T15:31:51.860Z,975.46
2023-01-17T15:32:51.814Z,975.48
2023-01-17T15:33:51.813Z,975.48
2023-01-17T15:34:51.794Z,975.49
2023-01-17T15:35:51.795Z,975.48
2023-01-17T15:36:51.788Z,975.49
2023-01-17T15:37:51.772Z,975.49
2023-01-17T15:38:51.745Z,975.50
2023-01-17T15:39:51.756Z,975.51
2023-01-17T15:40:51.731Z,975.50
2023-01-17T15:41:51.741Z,975.49
2023-01-17T15:42:51.717Z,975.47
2023-01-17T15:43:51.717Z,975.46
2023-01-17T15:44:51.699Z,975.45
2023-01-17T15:45:51.733Z,975.44
2023-01-17T15:46:51.669Z,975.46
2023-01-17T15:47:51.679Z,975.49
2023-01-17T15:48:51.650Z,975.52
2023-01-17T15:49:51.652Z,975.53
2023-01-17T15:50:51.631Z,975.53
2023-01-17T15:51:51.628Z,975.53
2023-01-17T15:52:51.617Z,975.51
2023-01-17T15:53:51.624Z,975.50
2023-01-17T15:54:51.617Z,975.50
2023-01-17T15:55:51.599Z,975.51
2023-01-17T15:56:51.561Z,975.53
2023-01-17T15:57:51.567Z,975.54
2023-01-17T15:58:51.533Z,975.54
2023-01-17T15:59:51.540Z,975.54
2023-01-17T16:00:51.628Z,975.53
2023-01-17T16:01:51.622Z,975.53
2023-01-17T16:02:51.590Z,975.54
2023-01-17T16:03:51.503Z,975.55
2023-01-17T16:04:51.475Z,975.57
2023-01-17T16:05:51.496Z,975.59
2023-01-17T16:06:51.465Z,975.60
2023-01-17T16:07:51.480Z,975.60
2023-01-17T16:08:51.445Z,975.60
2023-01-17T16:09:51.437Z,975.61
2023-01-17T16:10:51.421Z,975.63
2023-01-17T16:11:51.421Z,975.64
2023-01-17T16:12:51.984Z,975.65
2023-01-17T16:13:51.425Z,975.67
2023-01-17T16:15:10.447Z,975.68
2023-01-17T16:15:51.397Z,975.66
2023-01-17T16:16:51.412Z,975.65
2023-01-17T16:17:51.801Z,975.64
2023-01-17T16:18:51.336Z,975.63
2023-01-17T16:19:51.357Z,975.65
2023-01-17T16:20:51.311Z,975.65
2023-01-17T16:21:51.322Z,975.66
2023-01-17T16:22:51.779Z,975.67
2023-01-17T16:23:51.348Z,975.66
2023-01-17T16:24:51.327Z,975.65
2023-01-17T16:25:51.367Z,975.65
2023-01-17T16:26:51.303Z,975.67
2023-01-17T16:27:51.715Z,975.69
2023-01-17T16:28:51.284Z,975.70
2023-01-17T16:29:51.282Z,975.70
2023-01-17T16:30:51.354Z,975.69
2023-01-17T16:31:51.271Z,975.67
2023-01-17T16:32:51.266Z,975.66
2023-01-17T16:33:51.261Z,975.64
2023-01-17T16:34:51.221Z,975.63
2023-01-17T16:35:51.299Z,975.64
2023-01-17T16:36:51.202Z,975.65
2023-01-17T16:37:51.605Z,975.66
2023-01-17T16:38:51.193Z,975.67
2023-01-17T16:39:51.204Z,975.67
2023-01-17T16:40:51.159Z,975.68
2023-01-17T16:41:51.154Z,975.68
2023-01-17T16:42:51.156Z,975.67
2023-01-17T16:43:51.146Z,975.65
2023-01-17T16:44:51.124Z,975.65
2023-01-17T16:45:51.142Z,975.66
2023-01-17T16:46:51.100Z,975.67
2023-01-17T16:47:51.438Z,975.68
2023-01-17T16:48:51.068Z,975.70
2023-01-17T16:49:51.086Z,975.72
2023-01-17T16:50:51.049Z,975.74
2023-01-17T16:51:51.061Z,975.73
2023-01-17T16:52:51.035Z,975.73
2023-01-17T16:53:51.034Z,975.73
2023-01-17T16:54:51.031Z,975.73
2023-01-17T16:55:51.023Z,975.73
2023-01-17T16:56:50.983Z,975.71
2023-01-17T16:57:51.296Z,975.70
2023-01-17T16:58:50.996Z,975.68